Observation data for Saint Lawrence on 03/11/2018      Previous  Date  Next       Current Mesonet Observations  Soil Data  Daily Summary Page  Observations in Plain Language
KST1 110600Z 28009KT 23/M06 A2986 RMK A01 T02301061  RH  014%=      5-min Rain = 0
KST1 110605Z 28008KT 23/M06 A2986 RMK A01 T02251061  RH  014%=      5-min Rain = 0
KST1 110610Z 29007KT 22/M06 A2986 RMK A01 T02161062  RH  015%=      5-min Rain = 0
KST1 110615Z 27007KT 21/M06 A2986 RMK A01 T02081064  RH  016%=      5-min Rain = 0
KST1 110620Z 24008KT 20/M06 A2986 RMK A01 T01971064  RH  017%=      5-min Rain = 0
KST1 110625Z 25010KT 20/M06 A2986 RMK A01 T01991060  RH  017%=      5-min Rain = 0
KST1 110630Z 26009KT 21/M06 A2986 RMK A01 T02051060  RH  016%=      5-min Rain = 0
KST1 110635Z 26008KT 21/M06 A2985 RMK A01 T02101061  RH  016%=      5-min Rain = 0
KST1 110640Z 27007KT 20/M06 A2985 RMK A01 T02041062  RH  016%=      5-min Rain = 0
KST1 110645Z 28007KT 20/M06 A2985 RMK A01 T01981062  RH  017%=      5-min Rain = 0
KST1 110650Z 27009KT 20/M06 A2985 RMK A01 T01981064  RH  017%=      5-min Rain = 0
KST1 110655Z 28009KT 20/M07 A2985 RMK A01 T02041066  RH  016%=      5-min Rain = 0
KST1 110700Z 28008KT 20/M07 A2985 RMK A01 T02011066  RH  016%=      5-min Rain = 0
KST1 110705Z 28008KT 20/M07 A2986 RMK A01 T01991065  RH  016%=      5-min Rain = 0
KST1 110710Z 28008KT 20/M06 A2986 RMK A01 T01971064  RH  017%=      5-min Rain = 0
KST1 110715Z 28007KT 19/M06 A2986 RMK A01 T01891062  RH  018%=      5-min Rain = 0
KST1 110720Z 28008KT 19/M06 A2987 RMK A01 T01901062  RH  018%=      5-min Rain = 0
KST1 110725Z 27009KT 20/M06 A2987 RMK A01 T01981063  RH  017%=      5-min Rain = 0
KST1 110730Z 27009KT 20/M06 A2987 RMK A01 T01991062  RH  017%=      5-min Rain = 0
KST1 110735Z 26010KT 20/M06 A2987 RMK A01 T02001061  RH  017%=      5-min Rain = 0
KST1 110740Z 26010KT 20/M06 A2987 RMK A01 T02001060  RH  017%=      5-min Rain = 0
KST1 110745Z 26009KT 20/M06 A2987 RMK A01 T01981059  RH  017%=      5-min Rain = 0
KST1 110750Z 26008KT 19/M06 A2987 RMK A01 T01941059  RH  018%=      5-min Rain = 0
KST1 110755Z 27008KT 19/M06 A2987 RMK A01 T01901059  RH  018%=      5-min Rain = 0
KST1 110800Z 27008KT 18/M06 A2987 RMK A01 T01841060  RH  019%=      5-min Rain = 0
KST1 110805Z 28007KT 18/M06 A2986 RMK A01 T01801061  RH  019%=      5-min Rain = 0
KST1 110810Z 28007KT 17/M06 A2986 RMK A01 T01741062  RH  020%=      5-min Rain = 0
KST1 110815Z 29009KT 18/M06 A2986 RMK A01 T01751061  RH  020%=      5-min Rain = 0
KST1 110820Z 29010KT 17/M06 A2987 RMK A01 T01731062  RH  020%=      5-min Rain = 0
KST1 110825Z 29010KT 17/M06 A2987 RMK A01 T01711063  RH  020%=      5-min Rain = 0
KST1 110830Z 29010KT 17/M06 A2987 RMK A01 T01691063  RH  020%=      5-min Rain = 0
KST1 110835Z 30012KT 17/M06 A2987 RMK A01 T01731062  RH  020%=      5-min Rain = 0
KST1 110840Z 31011KT 18/M06 A2987 RMK A01 T01771062  RH  019%=      5-min Rain = 0
KST1 110845Z 32013G21KT 18/M06 A2987 RMK A01 T01801062  RH  019%=      5-min Rain = 0
KST1 110850Z 32014KT 19/M07 A2988 RMK A01 T01891065  RH  017%=      5-min Rain = 0
KST1 110855Z 32014G19KT 19/M07 A2988 RMK A01 T01871065  RH  018%=      5-min Rain = 0
KST1 110900Z 33018G23KT 19/M07 A2988 RMK A01 T01881067  RH  017%=      5-min Rain = 0
KST1 110905Z 33019KT 19/M07 A2988 RMK A01 T01881069  RH  017%=      5-min Rain = 0
KST1 110910Z 34021G26KT 18/M07 A2989 RMK A01 T01841074  RH  017%=      5-min Rain = 0
KST1 110915Z 36018G24KT 18/M08 A299 RMK A01 T01791075  RH  017%=      5-min Rain = 0
KST1 110920Z 00018G23KT 17/M07 A299 RMK A01 T01741067  RH  019%=      5-min Rain = 0
KST1 110925Z 01018G24KT 17/M06 A2991 RMK A01 T01721064  RH  020%=      5-min Rain = 0
KST1 110930Z 01018G24KT 17/M06 A299 RMK A01 T01691059  RH  021%=      5-min Rain = 0
KST1 110935Z 02019G24KT 17/M05 A299 RMK A01 T01661053  RH  022%=      5-min Rain = 0
KST1 110940Z 02023G30KT 16/M03 A299 RMK A01 T01641026  RH  027%=      5-min Rain = 0
KST1 110945Z 03022G27KT 16/01 A299 RMK A01 T01610011  RH  037%=      5-min Rain = 0
KST1 110950Z 03022G28KT 16/04 A299 RMK A01 T01590037  RH  045%=      5-min Rain = 0
KST1 110955Z 03020G25KT 16/05 A299 RMK A01 T01590051  RH  049%=      5-min Rain = 0
KST1 111000Z 03021G27KT 16/06 A299 RMK A01 T01580061  RH  053%=      5-min Rain = 0
KST1 111005Z 03022G29KT 16/07 A2991 RMK A01 T01580065  RH  055%=      5-min Rain = 0
KST1 111010Z 03023G31KT 16/07 A2991 RMK A01 T01570068  RH  056%=      5-min Rain = 0
KST1 111015Z 03025G32KT 16/07 A2991 RMK A01 T01550070  RH  058%=      5-min Rain = 0
KST1 111020Z 03026G33KT 15/07 A2991 RMK A01 T01540074  RH  060%=      5-min Rain = 0
KST1 111025Z 03025G31KT 15/07 A2992 RMK A01 T01530074  RH  060%=      5-min Rain = 0
KST1 111030Z 03026G34KT 15/08 A2993 RMK A01 T01520076  RH  062%=      5-min Rain = 0
KST1 111035Z 03023G30KT 15/08 A2994 RMK A01 T01510078  RH  063%=      5-min Rain = 0
KST1 111040Z 03025KT 15/08 A2995 RMK A01 T01500081  RH  064%=      5-min Rain = 0
KST1 111045Z 02021G27KT 15/08 A2995 RMK A01 T01490082  RH  065%=      5-min Rain = 0
KST1 111050Z 02022G27KT 15/08 A2995 RMK A01 T01480082  RH  065%=      5-min Rain = 0
KST1 111055Z 02024G30KT 15/08 A2996 RMK A01 T01460076  RH  064%=      5-min Rain = 0
KST1 111100Z 03025G36KT 15/07 A2997 RMK A01 T01450068  RH  061%=      5-min Rain = 0
KST1 111105Z 02020G27KT 14/06 A2997 RMK A01 T01420063  RH  060%=      5-min Rain = 0
KST1 111110Z 02021G29KT 14/06 A2998 RMK A01 T01410056  RH  057%=      5-min Rain = 0
KST1 111115Z 03025G33KT 14/04 A2998 RMK A01 T01390039  RH  051%=      5-min Rain = 0
KST1 111120Z 03023G32KT 14/02 A2999 RMK A01 T01360020  RH  046%=      5-min Rain = 0
KST1 111125Z 03023G30KT 14/01 A2999 RMK A01 T01350012  RH  044%=      5-min Rain = 0
KST1 111130Z 03021G26KT 13/01 A30 RMK A01 T01320006  RH  043%=      5-min Rain = 0
KST1 111135Z 02022G30KT 13/00 A30 RMK A01 T01310003  RH  042%=      5-min Rain = 0
KST1 111140Z 02022G27KT 13/M01 A30 RMK A01 T01281005  RH  040%=      5-min Rain = 0
KST1 111145Z 02027G35KT 13/M01 A3001 RMK A01 T01271010  RH  039%=      5-min Rain = 0
KST1 111150Z 02026G32KT 13/M01 A3001 RMK A01 T01271013  RH  038%=      5-min Rain = 0
KST1 111155Z 03025G30KT 13/M01 A3003 RMK A01 T01271014  RH  038%=      5-min Rain = 0
KST1 111200Z 03023KT 13/M02 A3003 RMK A01 T01271015  RH  038%=      5-min Rain = 0
KST1 111205Z 03021G28KT 13/M02 A3003 RMK A01 T01261015  RH  038%=      5-min Rain = 0
KST1 111210Z 03025G31KT 13/M02 A3003 RMK A01 T01251017  RH  038%=      5-min Rain = 0
KST1 111215Z 03022G30KT 13/M02 A3004 RMK A01 T01251017  RH  038%=      5-min Rain = 0
KST1 111220Z 03022KT 12/M02 A3004 RMK A01 T01241016  RH  038%=      5-min Rain = 0
KST1 111225Z 03020G25KT 12/M02 A3005 RMK A01 T01241016  RH  038%=      5-min Rain = 0
KST1 111230Z 03019KT 12/M02 A3006 RMK A01 T01231016  RH  038%=      5-min Rain = 0
KST1 111235Z 03019G26KT 12/M02 A3006 RMK A01 T01231016  RH  038%=      5-min Rain = 0
KST1 111240Z 03022G29KT 12/M02 A3006 RMK A01 T01221016  RH  039%=      5-min Rain = 0
KST1 111245Z 03021G26KT 12/M02 A3007 RMK A01 T01221016  RH  039%=      5-min Rain = 0
KST1 111250Z 04018KT 12/M02 A3008 RMK A01 T01211017  RH  039%=      5-min Rain = 0
KST1 111255Z 04019G24KT 12/M02 A3008 RMK A01 T01201017  RH  039%=      5-min Rain = 0
KST1 111300Z 04018G23KT 12/M02 A3008 RMK A01 T01201018  RH  039%=      5-min Rain = 0
KST1 111305Z 04018G25KT 12/M02 A3009 RMK A01 T01201018  RH  039%=      5-min Rain = 0
KST1 111310Z 04015KT 12/M02 A301 RMK A01 T01191019  RH  039%=      5-min Rain = 0
KST1 111315Z 04015KT 12/M02 A301 RMK A01 T01191019  RH  039%=      5-min Rain = 0
KST1 111320Z 03016KT 12/M02 A3011 RMK A01 T01201019  RH  038%=      5-min Rain = 0
KST1 111325Z 04017G23KT 12/M02 A3011 RMK A01 T01211020  RH  038%=      5-min Rain = 0
KST1 111330Z 03017G23KT 12/M02 A3011 RMK A01 T01211021  RH  038%=      5-min Rain = 0
KST1 111335Z 03017KT 12/M02 A3011 RMK A01 T01221021  RH  037%=      5-min Rain = 0
KST1 111340Z 04016G21KT 12/M02 A3012 RMK A01 T01231022  RH  037%=      5-min Rain = 0
KST1 111345Z 04017KT 12/M02 A3012 RMK A01 T01241023  RH  036%=      5-min Rain = 0
KST1 111350Z 03018G25KT 13/M02 A3012 RMK A01 T01251024  RH  036%=      5-min Rain = 0
KST1 111355Z 03019KT 13/M03 A3013 RMK A01 T01251026  RH  035%=      5-min Rain = 0
KST1 111400Z 03022G27KT 13/M03 A3013 RMK A01 T01251029  RH  035%=      5-min Rain = 0
KST1 111405Z 03021G29KT 13/M03 A3013 RMK A01 T01251031  RH  034%=      5-min Rain = 0
KST1 111410Z 03018KT 13/M03 A3014 RMK A01 T01251032  RH  034%=      5-min Rain = 0
KST1 111415Z 03019G24KT 13/M03 A3014 RMK A01 T01251032  RH  034%=      5-min Rain = 0
KST1 111420Z 03019KT 13/M03 A3014 RMK A01 T01251031  RH  034%=      5-min Rain = 0
KST1 111425Z 03019KT 13/M03 A3014 RMK A01 T01261031  RH  034%=      5-min Rain = 0
KST1 111430Z 03018G24KT 13/M03 A3015 RMK A01 T01261031  RH  034%=      5-min Rain = 0
KST1 111435Z 02017G23KT 13/M03 A3015 RMK A01 T01271031  RH  034%=      5-min Rain = 0
KST1 111440Z 03022KT 13/M03 A3015 RMK A01 T01261034  RH  033%=      5-min Rain = 0
KST1 111445Z 03018G23KT 13/M03 A3015 RMK A01 T01261034  RH  033%=      5-min Rain = 0
KST1 111450Z 03020KT 13/M03 A3016 RMK A01 T01271034  RH  033%=      5-min Rain = 0
KST1 111455Z 03019KT 13/M03 A3016 RMK A01 T01271034  RH  033%=      5-min Rain = 0
KST1 111500Z 03020G28KT 13/M03 A3016 RMK A01 T01271033  RH  033%=      5-min Rain = 0
KST1 111505Z 03023KT 13/M03 A3016 RMK A01 T01261033  RH  033%=      5-min Rain = 0
KST1 111510Z 02022G28KT 13/M03 A3017 RMK A01 T01271032  RH  033%=      5-min Rain = 0
KST1 111515Z 02022G27KT 13/M03 A3017 RMK A01 T01271032  RH  033%=      5-min Rain = 0
KST1 111520Z 03020KT 13/M03 A3018 RMK A01 T01301031  RH  033%=      5-min Rain = 0
KST1 111525Z 02018G23KT 13/M03 A3018 RMK A01 T01321030  RH  033%=      5-min Rain = 0
KST1 111530Z 02022KT 13/M03 A3019 RMK A01 T01291031  RH  033%=      5-min Rain = 0
KST1 111535Z 02023KT 13/M03 A3019 RMK A01 T01291033  RH  033%=      5-min Rain = 0
KST1 111540Z 02022G30KT 13/M04 A3019 RMK A01 T01291035  RH  032%=      5-min Rain = 0
KST1 111545Z 02024G29KT 13/M04 A302 RMK A01 T01301040  RH  031%=      5-min Rain = 0
KST1 111550Z 02023G29KT 13/M04 A302 RMK A01 T01281044  RH  030%=      5-min Rain = 0
KST1 111555Z 03022G27KT 13/M04 A3021 RMK A01 T01281044  RH  030%=      5-min Rain = 0
KST1 111600Z 04021G26KT 13/M05 A3021 RMK A01 T01271045  RH  030%=      5-min Rain = 0
KST1 111605Z 03021G26KT 13/M05 A3021 RMK A01 T01281049  RH  029%=      5-min Rain = 0
KST1 111610Z 03020G25KT 13/M05 A3021 RMK A01 T01271048  RH  029%=      5-min Rain = 0
KST1 111615Z 03019KT 13/M05 A3022 RMK A01 T01291045  RH  030%=      5-min Rain = 0
KST1 111620Z 02022KT 13/M05 A3022 RMK A01 T01281049  RH  029%=      5-min Rain = 0
KST1 111625Z 03021G27KT 13/M05 A3022 RMK A01 T01281054  RH  028%=      5-min Rain = 0
KST1 111630Z 03020KT 13/M06 A3022 RMK A01 T01291055  RH  028%=      5-min Rain = 0
KST1 111635Z 03018G23KT 13/M05 A3022 RMK A01 T01321053  RH  027%=      5-min Rain = 0
KST1 111640Z 02019KT 13/M05 A3023 RMK A01 T01341053  RH  027%=      5-min Rain = 0
KST1 111645Z 02018KT 13/M05 A3023 RMK A01 T01331053  RH  027%=      5-min Rain = 0
KST1 111650Z 03017KT 13/M05 A3023 RMK A01 T01341051  RH  027%=      5-min Rain = 0
KST1 111655Z 03015KT 13/M05 A3023 RMK A01 T01331046  RH  029%=      5-min Rain = 0
KST1 111700Z 02019G25KT 14/M05 A3023 RMK A01 T01351045  RH  028%=      5-min Rain = 0
KST1 111705Z 02019G25KT 13/M05 A3023 RMK A01 T01341053  RH  027%=      5-min Rain = 0
KST1 111710Z 02020G27KT 13/M05 A3023 RMK A01 T01321054  RH  027%=      5-min Rain = 0
KST1 111715Z 02019G26KT 14/M05 A3024 RMK A01 T01351053  RH  027%=      5-min Rain = 0
KST1 111720Z 03020KT 14/M06 A3024 RMK A01 T01351056  RH  026%=      5-min Rain = 0
KST1 111725Z 02020G26KT 13/M06 A3024 RMK A01 T01341058  RH  026%=      5-min Rain = 0
KST1 111730Z 03018G24KT 14/M06 A3024 RMK A01 T01351057  RH  026%=      5-min Rain = 0
KST1 111735Z 04018G23KT 14/M06 A3024 RMK A01 T01381057  RH  026%=      5-min Rain = 0
KST1 111740Z 03016G24KT 14/M05 A3024 RMK A01 T01391051  RH  027%=      5-min Rain = 0
KST1 111745Z 01015KT 14/M05 A3024 RMK A01 T01381048  RH  027%=      5-min Rain = 0
KST1 111750Z 02016G21KT 14/M05 A3024 RMK A01 T01381048  RH  027%=      5-min Rain = 0
KST1 111755Z 02015G22KT 14/M05 A3025 RMK A01 T01371049  RH  027%=      5-min Rain = 0
KST1 111800Z 02017G23KT 14/M05 A3025 RMK A01 T01391052  RH  026%=      5-min Rain = 0
KST1 111805Z 03017KT 14/M06 A3025 RMK A01 T01411055  RH  026%=      5-min Rain = 0
KST1 111810Z 03015KT 14/M06 A3025 RMK A01 T01411056  RH  025%=      5-min Rain = 0
KST1 111815Z 02015G22KT 14/M05 A3025 RMK A01 T01401053  RH  026%=      5-min Rain = 0
KST1 111820Z 02016G22KT 14/M06 A3025 RMK A01 T01401057  RH  025%=      5-min Rain = 0
KST1 111825Z 02017G23KT 15/M06 A3024 RMK A01 T01451061  RH  024%=      5-min Rain = 0
KST1 111830Z 04015G20KT 15/M06 A3025 RMK A01 T01451062  RH  024%=      5-min Rain = 0
KST1 111835Z 03017G22KT 14/M07 A3025 RMK A01 T01441071  RH  022%=      5-min Rain = 0
KST1 111840Z 03015G21KT 15/M07 A3025 RMK A01 T01451066  RH  023%=      5-min Rain = 0
KST1 111845Z 02016G22KT 14/M07 A3024 RMK A01 T01441068  RH  023%=      5-min Rain = 0
KST1 111850Z 02014KT 14/M07 A3025 RMK A01 T01431069  RH  023%=      5-min Rain = 0
KST1 111855Z 03016G23KT 15/M07 A3024 RMK A01 T01461071  RH  022%=      5-min Rain = 0
KST1 111900Z 04016KT 15/M08 A3024 RMK A01 T01471077  RH  021%=      5-min Rain = 0
KST1 111905Z 04017G24KT 15/M08 A3023 RMK A01 T01461079  RH  021%=      5-min Rain = 0
KST1 111910Z 03016G21KT 15/M08 A3023 RMK A01 T01471078  RH  021%=      5-min Rain = 0
KST1 111915Z 04015G21KT 15/M08 A3023 RMK A01 T01461081  RH  020%=      5-min Rain = 0
KST1 111920Z 02015G21KT 14/M08 A3023 RMK A01 T01441080  RH  021%=      5-min Rain = 0
KST1 111925Z 02017KT 14/M09 A3024 RMK A01 T01441086  RH  020%=      5-min Rain = 0
KST1 111930Z 02016G21KT 14/M09 A3024 RMK A01 T01441088  RH  019%=      5-min Rain = 0
KST1 111935Z 02015G20KT 14/M09 A3023 RMK A01 T01441087  RH  020%=      5-min Rain = 0
KST1 111940Z 03014G22KT 15/M08 A3023 RMK A01 T01501083  RH  019%=      5-min Rain = 0
KST1 111945Z 02014G19KT 15/M09 A3023 RMK A01 T01471087  RH  019%=      5-min Rain = 0
KST1 111950Z 02015G21KT 15/M09 A3023 RMK A01 T01471085  RH  020%=      5-min Rain = 0
KST1 111955Z 01016G21KT 14/M08 A3023 RMK A01 T01441081  RH  021%=      5-min Rain = 0
KST1 112000Z 02015G21KT 15/M08 A3023 RMK A01 T01501079  RH  020%=      5-min Rain = 0
KST1 112005Z 01018G25KT 15/M08 A3023 RMK A01 T01541083  RH  019%=      5-min Rain = 0
KST1 112010Z 02017G22KT 15/M09 A3023 RMK A01 T01451087  RH  019%=      5-min Rain = 0
KST1 112015Z 01014G20KT 15/M09 A3023 RMK A01 T01451087  RH  020%=      5-min Rain = 0
KST1 112020Z 01015G21KT 15/M09 A3023 RMK A01 T01471090  RH  019%=      5-min Rain = 0
KST1 112025Z 02017G22KT 15/M09 A3023 RMK A01 T01501088  RH  019%=      5-min Rain = 0
KST1 112030Z 01016G22KT 14/M10 A3023 RMK A01 T01441096  RH  018%=      5-min Rain = 0
KST1 112035Z 02016KT 14/M10 A3024 RMK A01 T01441096  RH  018%=      5-min Rain = 0
KST1 112040Z 02016G22KT 14/M11 A3024 RMK A01 T01431107  RH  017%=      5-min Rain = 0
KST1 112045Z 02015KT 15/M12 A3024 RMK A01 T01451117  RH  015%=      5-min Rain = 0
KST1 112050Z 03013G19KT 14/M11 A3024 RMK A01 T01421113  RH  016%=      5-min Rain = 0
KST1 112055Z 01015KT 14/M10 A3024 RMK A01 T01431099  RH  018%=      5-min Rain = 0
KST1 112100Z 01014KT 14/M10 A3023 RMK A01 T01391095  RH  019%=      5-min Rain = 0
KST1 112105Z 01016KT 14/M10 A3023 RMK A01 T01391098  RH  019%=      5-min Rain = 0
KST1 112110Z 01016KT 14/M10 A3023 RMK A01 T01381102  RH  018%=      5-min Rain = 0
KST1 112115Z 01015KT 14/M11 A3023 RMK A01 T01381109  RH  017%=      5-min Rain = 0
KST1 112120Z 02013KT 14/M11 A3023 RMK A01 T01371113  RH  017%=      5-min Rain = 0
KST1 112125Z 01015G20KT 14/M11 A3023 RMK A01 T01371108  RH  017%=      5-min Rain = 0
KST1 112130Z 02015G20KT 14/M12 A3023 RMK A01 T01381117  RH  016%=      5-min Rain = 0
KST1 112135Z 03014KT 14/M12 A3023 RMK A01 T01381118  RH  016%=      5-min Rain = 0
KST1 112140Z 03015G22KT 14/M12 A3022 RMK A01 T01421121  RH  015%=      5-min Rain = 0
KST1 112145Z 02015KT 14/M13 A3022 RMK A01 T01411126  RH  015%=      5-min Rain = 0
KST1 112150Z 03014G22KT 14/M13 A3022 RMK A01 T01441127  RH  014%=      5-min Rain = 0
KST1 112155Z 03014G19KT 15/M13 A3022 RMK A01 T01451132  RH  014%=      5-min Rain = 0
KST1 112200Z 02015G20KT 14/M12 A3022 RMK A01 T01421124  RH  015%=      5-min Rain = 0
KST1 112205Z 02012G17KT 14/M12 A3022 RMK A01 T01401117  RH  016%=      5-min Rain = 0
KST1 112210Z 03011G17KT 14/M11 A3022 RMK A01 T01441111  RH  016%=      5-min Rain = 0
KST1 112215Z 02013KT 15/M11 A3022 RMK A01 T01461107  RH  017%=      5-min Rain = 0
KST1 112220Z 03013KT 15/M11 A3022 RMK A01 T01461107  RH  017%=      5-min Rain = 0
KST1 112225Z 02014KT 15/M11 A3022 RMK A01 T01481112  RH  016%=      5-min Rain = 0
KST1 112230Z 03013KT 15/M12 A3022 RMK A01 T01461118  RH  015%=      5-min Rain = 0
KST1 112235Z 03015G20KT 14/M12 A3022 RMK A01 T01441124  RH  015%=      5-min Rain = 0
KST1 112240Z 02014KT 14/M14 A3022 RMK A01 T01441136  RH  013%=      5-min Rain = 0
KST1 112245Z 04014G19KT 15/M13 A3023 RMK A01 T01471131  RH  014%=      5-min Rain = 0
KST1 112250Z 04015KT 14/M13 A3023 RMK A01 T01421130  RH  014%=      5-min Rain = 0
KST1 112255Z 03015KT 14/M12 A3023 RMK A01 T01421123  RH  015%=      5-min Rain = 0
KST1 112300Z 03012KT 14/M12 A3023 RMK A01 T01421120  RH  015%=      5-min Rain = 0
KST1 112305Z 03015KT 14/M12 A3023 RMK A01 T01421120  RH  015%=      5-min Rain = 0
KST1 112310Z 02014G20KT 14/M12 A3023 RMK A01 T01421118  RH  016%=      5-min Rain = 0
KST1 112315Z 02015KT 14/M11 A3023 RMK A01 T01401114  RH  016%=      5-min Rain = 0
KST1 112320Z 02016KT 14/M11 A3023 RMK A01 T01391110  RH  017%=      5-min Rain = 0
KST1 112325Z 02015KT 14/M11 A3023 RMK A01 T01381110  RH  017%=      5-min Rain = 0
KST1 112330Z 03014KT 14/M11 A3023 RMK A01 T01371108  RH  017%=      5-min Rain = 0
KST1 112335Z 03015KT 14/M11 A3023 RMK A01 T01381105  RH  018%=      5-min Rain = 0
KST1 112340Z 02013KT 14/M11 A3023 RMK A01 T01361105  RH  018%=      5-min Rain = 0
KST1 112345Z 02015KT 14/M10 A3023 RMK A01 T01351102  RH  018%=      5-min Rain = 0
KST1 112350Z 02015KT 14/M10 A3023 RMK A01 T01351100  RH  019%=      5-min Rain = 0
KST1 112355Z 02013KT 13/M10 A3024 RMK A01 T01331100  RH  019%=      5-min Rain = 0
KST1 120000Z 02013KT 13/M10 A3024 RMK A01 T01331099  RH  019%=      5-min Rain = 0
KST1 120005Z 02014KT 13/M10 A3024 RMK A01 T01341097  RH  019%=      5-min Rain = 0
KST1 120010Z 02014KT 13/M10 A3024 RMK A01 T01331097  RH  019%=      5-min Rain = 0
KST1 120015Z 01013KT 13/M10 A3025 RMK A01 T01321098  RH  019%=      5-min Rain = 0
KST1 120020Z 01012KT 13/M10 A3025 RMK A01 T01321098  RH  019%=      5-min Rain = 0
KST1 120025Z 01013KT 13/M10 A3025 RMK A01 T01311098  RH  020%=      5-min Rain = 0
KST1 120030Z 02013KT 13/M10 A3025 RMK A01 T01311098  RH  020%=      5-min Rain = 0
KST1 120035Z 02012KT 13/M10 A3025 RMK A01 T01311097  RH  020%=      5-min Rain = 0
KST1 120040Z 02014KT 13/M10 A3025 RMK A01 T01301096  RH  020%=      5-min Rain = 0
KST1 120045Z 02012KT 13/M10 A3025 RMK A01 T01301096  RH  020%=      5-min Rain = 0
KST1 120050Z 02012KT 13/M10 A3025 RMK A01 T01291096  RH  020%=      5-min Rain = 0
KST1 120055Z 02012KT 13/M10 A3025 RMK A01 T01291096  RH  020%=      5-min Rain = 0
KST1 120100Z 02009KT 13/M10 A3025 RMK A01 T01281096  RH  020%=      5-min Rain = 0
KST1 120105Z 02010KT 13/M10 A3026 RMK A01 T01281095  RH  020%=      5-min Rain = 0
KST1 120110Z 02010KT 13/M10 A3026 RMK A01 T01281095  RH  021%=      5-min Rain = 0
KST1 120115Z 02009KT 13/M09 A3026 RMK A01 T01281094  RH  021%=      5-min Rain = 0
KST1 120120Z 02008KT 13/M09 A3026 RMK A01 T01271094  RH  021%=      5-min Rain = 0
KST1 120125Z 02008KT 13/M09 A3026 RMK A01 T01271094  RH  021%=      5-min Rain = 0
KST1 120130Z 02007KT 13/M10 A3026 RMK A01 T01261095  RH  021%=      5-min Rain = 0
KST1 120135Z 02006KT 13/M10 A3026 RMK A01 T01251095  RH  021%=      5-min Rain = 0
KST1 120140Z 01006KT 12/M10 A3027 RMK A01 T01241095  RH  021%=      5-min Rain = 0
KST1 120145Z 01006KT 12/M10 A3027 RMK A01 T01231095  RH  021%=      5-min Rain = 0
KST1 120150Z 01006KT 12/M09 A3027 RMK A01 T01221094  RH  021%=      5-min Rain = 0
KST1 120155Z 01006KT 12/M10 A3027 RMK A01 T01221095  RH  021%=      5-min Rain = 0
KST1 120200Z 01006KT 12/M10 A3027 RMK A01 T01221095  RH  021%=      5-min Rain = 0
KST1 120205Z 01005KT 12/M10 A3027 RMK A01 T01211095  RH  021%=      5-min Rain = 0
KST1 120210Z 02005KT 12/M10 A3027 RMK A01 T01211095  RH  021%=      5-min Rain = 0
KST1 120215Z 02006KT 12/M10 A3027 RMK A01 T01201095  RH  022%=      5-min Rain = 0
KST1 120220Z 02006KT 12/M10 A3028 RMK A01 T01201096  RH  022%=      5-min Rain = 0
KST1 120225Z 02006KT 12/M10 A3028 RMK A01 T01181096  RH  022%=      5-min Rain = 0
KST1 120230Z 02006KT 12/M10 A3028 RMK A01 T01181097  RH  022%=      5-min Rain = 0
KST1 120235Z 02006KT 12/M10 A3028 RMK A01 T01171097  RH  022%=      5-min Rain = 0
KST1 120240Z 02006KT 12/M10 A3029 RMK A01 T01161097  RH  022%=      5-min Rain = 0
KST1 120245Z 02006KT 12/M10 A3029 RMK A01 T01171096  RH  022%=      5-min Rain = 0
KST1 120250Z 02005KT 12/M10 A3029 RMK A01 T01161096  RH  022%=      5-min Rain = 0
KST1 120255Z 01004KT 12/M10 A3029 RMK A01 T01161096  RH  022%=      5-min Rain = 0
KST1 120300Z 01004KT 11/M10 A3029 RMK A01 T01141097  RH  022%=      5-min Rain = 0
KST1 120305Z 01004KT 11/M10 A303 RMK A01 T01121097  RH  022%=      5-min Rain = 0
KST1 120310Z 01005KT 11/M10 A3029 RMK A01 T01101098  RH  023%=      5-min Rain = 0
KST1 120315Z 02006KT 11/M10 A3029 RMK A01 T01091098  RH  023%=      5-min Rain = 0
KST1 120320Z 02006KT 11/M10 A303 RMK A01 T01081098  RH  023%=      5-min Rain = 0
KST1 120325Z 01006KT 11/M10 A303 RMK A01 T01071098  RH  023%=      5-min Rain = 0
KST1 120330Z 02005KT 11/M10 A303 RMK A01 T01071097  RH  023%=      5-min Rain = 0
KST1 120335Z 03003KT 11/M10 A303 RMK A01 T01071096  RH  023%=      5-min Rain = 0
KST1 120340Z 02003KT 11/M10 A303 RMK A01 T01061097  RH  023%=      5-min Rain = 0
KST1 120345Z 02004KT 11/M10 A3031 RMK A01 T01051097  RH  023%=      5-min Rain = 0
KST1 120350Z 02005KT 11/M10 A3031 RMK A01 T01051097  RH  023%=      5-min Rain = 0
KST1 120355Z 02004KT 11/M10 A3031 RMK A01 T01061096  RH  023%=      5-min Rain = 0
KST1 120400Z 02003KT 11/M10 A3031 RMK A01 T01071095  RH  023%=      5-min Rain = 0
KST1 120405Z 01004KT 11/M10 A3031 RMK A01 T01081095  RH  023%=      5-min Rain = 0
KST1 120410Z 01006KT 11/M10 A3031 RMK A01 T01051096  RH  024%=      5-min Rain = 0
KST1 120415Z 01008KT 11/M09 A3031 RMK A01 T01051094  RH  024%=      5-min Rain = 0
KST1 120420Z 02009KT 11/M09 A3031 RMK A01 T01071094  RH  024%=      5-min Rain = 0
KST1 120425Z 02008KT 11/M09 A3031 RMK A01 T01091093  RH  024%=      5-min Rain = 0
KST1 120430Z 02008KT 11/M09 A3031 RMK A01 T01091093  RH  024%=      5-min Rain = 0
KST1 120435Z 02007KT 11/M09 A3032 RMK A01 T01081093  RH  024%=      5-min Rain = 0
KST1 120440Z 02006KT 11/M09 A3032 RMK A01 T01071092  RH  024%=      5-min Rain = 0
KST1 120445Z 02005KT 11/M09 A3032 RMK A01 T01061093  RH  024%=      5-min Rain = 0
KST1 120450Z 02005KT 11/M09 A3032 RMK A01 T01051093  RH  024%=      5-min Rain = 0
KST1 120455Z 02005KT 10/M09 A3032 RMK A01 T01041093  RH  024%=      5-min Rain = 0

Page generated in 0.0129 seconds.